Humidity-temperature Sensor

Selected Measurement Type: Air Temperature

 
Air Temperature [°C]     6 entries per hour
Showing data from 9/15/2018 (00:00:00 Z) to 9/14/2018 (00:01:00 Z)
Previous Next [ Day | 3-Days | 7-Days ]
First Last
Prev [ Day | 3-Days | 7-Days ] Next
First Last

Start Time:     :
End Time:     :     
Time (in GMT) :00 :50 :40 :30 :20 :10
Previous Next [ Day | 3-Days | 7-Days ]
First Last
Prev [ Day | 3-Days | 7-Days ] Next
First Last


123 => good data
MM => data is determined as missing
-- => data not received/configured
Back to Top Back to Top
9/15/2018 00:00 to 23:10 24.81 24.68 24.81 24.80 24.68 24.69
9/14/2018 23:00 to 22:10 24.74 24.75 24.77 24.72 24.78 24.54
9/14/2018 22:00 to 21:10 24.81 24.80 24.88 24.78 24.74 24.88
9/14/2018 21:00 to 20:10 24.75 24.72 24.70 24.75 24.69 24.80
9/14/2018 20:00 to 19:10 24.76 24.75 24.61 24.67 24.57 24.77
9/14/2018 19:00 to 18:10 24.68 24.92 24.84 24.92 24.86 24.94
9/14/2018 18:00 to 17:10 24.99 24.81 24.97 24.77 24.74 24.69
9/14/2018 17:00 to 16:10 24.52 24.85 24.79 24.85 24.76 24.55
9/14/2018 16:00 to 15:10 24.59 24.75 24.52 24.75 24.60 24.56
9/14/2018 15:00 to 14:10 24.51 24.71 24.40 24.42 24.32 24.37
9/14/2018 14:00 to 13:10 24.32 23.89 24.41 24.30 24.34 24.28
9/14/2018 13:00 to 12:10 24.28 24.33 24.02 24.27 23.67 24.32
9/14/2018 12:00 to 11:10 24.39 24.38 24.27 24.13 23.71 24.46
9/14/2018 11:00 to 10:10 24.26 24.30 24.39 24.51 24.37 24.46
9/14/2018 10:00 to 9:10 24.28 24.45 24.36 24.48 24.62 24.59
9/14/2018 09:00 to 8:10 24.56 24.14 23.88 24.32 23.77 24.70
9/14/2018 08:00 to 7:10 24.71 24.84 24.64 24.48 24.15 24.71
9/14/2018 07:00 to 6:10 23.89 24.33 24.94 25.00 24.96 24.97
9/14/2018 06:00 to 5:10 24.98 24.84 24.44 25.14 25.14 25.08
9/14/2018 05:00 to 4:10 24.91 25.18 24.98 24.62 24.92 25.12
9/14/2018 04:00 to 3:10 25.18 25.36 25.17 25.34 25.18 25.20
9/14/2018 03:00 to 2:10 25.30 25.15 25.14 25.19 25.30 25.13
9/14/2018 02:00 to 1:10 25.05 25.13 25.26 24.95 24.96 25.24
9/14/2018 01:00 to 0:10 25.08 25.34 25.18 25.46 24.80 24.14